Time;durP1;ratioP1;P1;durP2;ratioP2;P2;SDS_P1;SDS_P2;PMS_P1;PMS_P2;Temp;Humidity;BMP_temperature;BMP_pressure;BME280_temperature;BME280_humidity;BME280_pressure;Samples;Min_cycle;Max_cycle;Signal;HPM_P1;HPM_P2
2022/05/09 00:01:37;;;;;;;;;18.67;18.67;;;;;34.70;21.45;101940.97;5075362;27;45710;-82
2022/05/09 00:04:02;;;;;;;;;15.67;14.67;;;;;34.70;21.45;101946.50;5073870;28;47482;-82
2022/05/09 00:06:28;;;;;;;;;17.00;17.00;;;;;34.66;21.23;101943.03;5073604;28;45722;-82
2022/05/09 00:08:53;;;;;;;;;19.00;18.33;;;;;34.61;21.36;101933.28;5075439;27;45461;-82
2022/05/09 00:11:18;;;;;;;;;16.67;15.00;;;;;34.70;21.53;101939.09;5075498;27;45400;-82
2022/05/09 00:13:44;;;;;;;;;19.67;19.67;;;;;34.67;21.33;101935.63;5075113;28;46535;-83
2022/05/09 00:16:10;;;;;;;;;16.33;16.33;;;;;34.73;21.47;101956.41;5075418;27;45362;-83
2022/05/09 00:18:35;;;;;;;;;18.00;18.00;;;;;34.62;21.71;101935.94;5075247;27;45526;-82
2022/05/09 00:21:01;;;;;;;;;16.33;16.33;;;;;34.62;21.39;101943.34;5074956;27;45381;-82
2022/05/09 00:23:26;;;;;;;;;24.67;19.67;;;;;34.61;22.00;101952.56;5075218;27;45464;-82
2022/05/09 00:25:52;;;;;;;;;15.67;15.67;;;;;34.41;21.67;101929.94;5074955;27;45397;-82
2022/05/09 00:28:18;;;;;;;;;18.67;18.00;;;;;34.40;21.63;101935.53;5075159;27;45665;-82
2022/05/09 00:30:43;;;;;;;;;19.00;18.00;;;;;34.45;21.67;101948.03;5075072;27;45373;-82
2022/05/09 00:33:09;;;;;;;;;18.00;17.33;;;;;34.38;21.45;101952.19;5073406;28;47123;-82
2022/05/09 00:35:36;;;;;;;;;19.33;17.67;;;;;34.28;21.58;101934.44;5074723;27;45280;-82
2022/05/09 00:38:01;;;;;;;;;20.33;19.00;;;;;34.39;21.62;101936.53;5075225;27;45272;-82
2022/05/09 00:40:27;;;;;;;;;17.00;16.00;;;;;34.51;21.55;101946.78;5078550;27;45330;-82
2022/05/09 00:42:53;;;;;;;;;18.00;15.67;;;;;34.38;21.55;101932.91;5078353;27;45343;-82
2022/05/09 00:45:21;;;;;;;;;17.67;16.67;;;;;34.46;21.44;101962.69;5078590;28;45332;-82
2022/05/09 00:47:47;;;;;;;;;18.00;18.00;;;;;34.33;21.46;101921.25;5078203;27;45441;-82
2022/05/09 00:50:20;;;;;;;;;17.33;14.33;;;;;34.36;21.61;101933.00;5076812;28;45471;-82
2022/05/09 00:52:59;;;;;;;;;14.33;14.33;;;;;34.33;21.45;101949.72;5077996;27;45602;-82
2022/05/09 00:55:35;;;;;;;;;20.67;16.67;;;;;34.21;21.52;101946.81;5078261;27;45539;-82
2022/05/09 00:58:10;;;;;;;;;15.00;14.00;;;;;33.94;21.37;101925.50;5078170;28;45271;-82
2022/05/09 01:00:37;;;;;;;;;14.33;14.33;;;;;33.83;21.23;101935.31;5078152;28;45512;-82
2022/05/09 01:03:10;;;;;;;;;12.67;12.67;;;;;33.72;21.19;101947.94;5078010;27;45454;-82
2022/05/09 01:05:37;;;;;;;;;15.67;14.67;;;;;33.65;21.27;101947.41;5077749;28;45421;-82
2022/05/09 01:08:03;;;;;;;;;13.67;12.67;;;;;33.56;21.11;101946.09;5076822;28;45402;-83
2022/05/09 01:10:34;;;;;;;;;17.00;15.00;;;;;33.41;21.34;101920.38;5078034;27;45473;-83
2022/05/09 01:13:07;;;;;;;;;16.67;15.00;;;;;33.50;21.56;101936.34;5076548;28;47098;-82
2022/05/09 01:15:33;;;;;;;;;15.33;13.33;;;;;33.23;21.42;101910.47;5077932;27;45429;-82
2022/05/09 01:18:01;;;;;;;;;13.67;13.67;;;;;33.35;21.39;101923.50;5077734;27;45364;-82
2022/05/09 01:20:27;;;;;;;;;14.33;12.00;;;;;33.40;21.29;101939.72;5077867;27;45792;-82
2022/05/09 01:22:57;;;;;;;;;15.00;14.33;;;;;33.28;21.44;101938.59;5077648;27;46048;-82
2022/05/09 01:25:23;;;;;;;;;13.00;12.00;;;;;33.24;21.72;101937.00;5076574;28;45344;-82
2022/05/09 01:27:49;;;;;;;;;12.67;10.00;;;;;33.11;21.37;101940.41;5077747;27;45429;-82
2022/05/09 01:30:26;;;;;;;;;13.67;13.00;;;;;32.99;21.76;101917.25;5077845;27;45466;-82
2022/05/09 01:33:05;;;;;;;;;14.00;14.00;;;;;32.91;21.75;101918.66;5077145;27;46502;-82
2022/05/09 01:35:30;;;;;;;;;15.00;14.67;;;;;32.89;21.69;101938.00;5077677;27;45396;-81
2022/05/09 01:38:25;;;;;;;;;11.67;11.67;;;;;32.85;21.68;101944.66;5077597;27;45384;-82
2022/05/09 01:40:50;;;;;;;;;13.00;11.00;;;;;32.81;21.73;101938.47;5067087;28;45471;-82
2022/05/09 01:43:43;;;;;;;;;13.00;12.67;;;;;32.86;21.69;101932.69;5077428;27;45340;-82
2022/05/09 01:46:15;;;;;;;;;14.00;11.33;;;;;32.85;21.72;101936.41;5076386;28;45516;-82
2022/05/09 01:51:25;;;;;;;;;13.00;13.00;;;;;32.61;22.00;101933.16;5077457;28;45576;-82
2022/05/09 01:53:52;;;;;;;;;15.33;14.00;;;;;32.59;21.99;101929.59;5076977;27;46375;-82
2022/05/09 01:56:23;;;;;;;;;14.33;13.33;;;;;32.52;21.56;101930.91;5077451;27;45378;-82
2022/05/09 01:58:49;;;;;;;;;12.00;11.00;;;;;32.52;21.47;101937.31;5077263;27;45391;-82
2022/05/09 02:01:18;;;;;;;;;9.67;9.67;;;;;32.39;21.63;101933.44;5077192;27;45544;-82
2022/05/09 02:03:45;;;;;;;;;11.00;10.00;;;;;32.46;21.51;101945.84;5076837;27;45530;-81
2022/05/09 02:06:11;;;;;;;;;10.00;10.00;;;;;32.32;21.89;101922.78;5077109;27;45438;-82
2022/05/09 02:08:37;;;;;;;;;13.00;11.67;;;;;32.39;21.97;101925.19;5077411;27;45691;-82
2022/05/09 02:11:03;;;;;;;;;10.33;10.33;;;;;32.46;21.68;101946.75;5076936;27;45441;-82
2022/05/09 02:13:28;;;;;;;;;11.00;10.00;;;;;32.49;21.48;101934.72;5076912;27;45982;-82
2022/05/09 02:15:54;;;;;;;;;10.00;10.00;;;;;32.55;21.83;101939.00;5075180;28;45396;-82
2022/05/09 02:18:19;;;;;;;;;12.00;11.00;;;;;32.53;21.41;101935.44;5077263;27;45390;-82
2022/05/09 02:20:46;;;;;;;;;10.00;10.00;;;;;32.52;21.45;101919.91;5077056;27;45432;-82
2022/05/09 02:23:13;;;;;;;;;10.33;9.00;;;;;32.49;21.42;101913.63;5077192;27;46329;-82
2022/05/09 02:25:39;;;;;;;;;11.67;10.33;;;;;32.61;21.49;101933.16;5076807;27;45430;-79
2022/05/09 02:28:09;;;;;;;;;6.33;6.33;;;;;32.61;21.35;101934.03;5077152;27;45286;-79
2022/05/09 02:30:36;;;;;;;;;14.00;9.00;;;;;32.52;21.20;101919.91;5076612;27;45431;-79
2022/05/09 02:33:02;;;;;;;;;9.67;9.00;;;;;32.53;21.18;101925.31;5076785;27;45501;-79
2022/05/09 02:35:28;;;;;;;;;10.00;9.00;;;;;32.50;21.39;101917.25;5077008;28;45460;-79
2022/05/09 02:37:53;;;;;;;;;9.00;9.00;;;;;32.48;21.09;101933.81;5076936;27;45450;-79
2022/05/09 02:40:20;;;;;;;;;8.00;7.00;;;;;32.40;21.44;101930.59;5076840;27;45432;-79
2022/05/09 02:42:45;;;;;;;;;8.00;8.00;;;;;32.24;21.09;101892.13;5076646;28;46266;-79
2022/05/09 02:45:11;;;;;;;;;9.33;8.33;;;;;32.46;21.69;101924.78;5075141;28;45494;-79
2022/05/09 02:47:40;;;;;;;;;10.67;10.33;;;;;32.40;20.92;101916.00;5076862;27;45395;-79
2022/05/09 02:50:06;;;;;;;;;11.00;8.33;;;;;32.34;21.68;101922.72;5076629;28;45413;-79
2022/05/09 02:52:32;;;;;;;;;8.67;7.00;;;;;32.13;21.46;101903.66;5074893;28;46328;-79
2022/05/09 02:54:57;;;;;;;;;7.00;7.00;;;;;32.12;21.06;101914.72;5076597;27;45385;-79
2022/05/09 02:57:22;;;;;;;;;7.67;7.67;;;;;32.10;21.64;101903.81;5075495;28;45427;-79
2022/05/09 02:59:48;;;;;;;;;9.33;8.33;;;;;32.01;21.30;101906.16;5075940;27;45362;-79
2022/05/09 03:02:13;;;;;;;;;10.00;10.00;;;;;31.98;20.93;101904.47;5075477;27;47309;-79
2022/05/09 03:04:39;;;;;;;;;9.67;9.67;;;;;32.05;21.44;101919.63;5076540;27;45417;-79
2022/05/09 03:07:05;;;;;;;;;9.33;8.67;;;;;32.01;21.13;101903.41;5076435;28;45356;-79
2022/05/09 03:09:31;;;;;;;;;10.33;9.00;;;;;32.10;21.50;101917.53;5076695;28;45352;-79
2022/05/09 03:11:56;;;;;;;;;8.67;8.67;;;;;32.02;21.68;101914.31;5075965;27;46565;-79
2022/05/09 03:14:22;;;;;;;;;9.00;9.00;;;;;32.03;21.52;101909.72;5075936;28;45426;-79
2022/05/09 03:16:47;;;;;;;;;10.00;10.00;;;;;31.79;21.35;101880.75;5076281;27;45441;-79
2022/05/09 03:19:13;;;;;;;;;10.67;9.00;;;;;31.95;21.23;101901.88;5076451;27;45522;-79
2022/05/09 03:21:38;;;;;;;;;9.33;9.00;;;;;32.09;21.68;101909.38;5074962;28;46933;-79
2022/05/09 03:24:04;;;;;;;;;11.33;11.33;;;;;31.89;21.57;101894.00;5076139;27;45551;-79
2022/05/09 03:26:30;;;;;;;;;8.67;8.67;;;;;31.89;21.42;101904.97;5076176;28;45411;-79
2022/05/09 03:28:55;;;;;;;;;11.00;10.00;;;;;31.87;21.75;101916.03;5075600;27;45616;-79
2022/05/09 03:31:21;;;;;;;;;10.00;10.00;;;;;31.91;21.33;101911.25;5075895;27;46073;-79
2022/05/09 03:33:46;;;;;;;;;10.67;10.00;;;;;31.96;21.20;101911.91;5075818;27;45524;-79
2022/05/09 03:36:11;;;;;;;;;10.33;7.67;;;;;31.84;21.56;101896.09;5076154;27;45467;-79
2022/05/09 03:38:38;;;;;;;;;11.33;11.00;;;;;31.79;21.63;101905.44;5076190;27;45394;-79
2022/05/09 03:41:04;;;;;;;;;8.00;8.00;;;;;31.65;21.79;101902.53;5075700;27;46039;-79
2022/05/09 03:43:29;;;;;;;;;9.33;8.00;;;;;31.51;21.97;101891.38;5075789;27;45349;-79
2022/05/09 03:45:57;;;;;;;;;13.67;11.00;;;;;31.46;22.24;101888.84;5075738;27;45494;-79
2022/05/09 03:48:22;;;;;;;;;11.00;9.00;;;;;31.60;22.03;101921.09;5075965;27;45413;-79
2022/05/09 03:50:47;;;;;;;;;14.67;10.00;;;;;31.53;21.98;101895.78;5075599;27;45427;-79
2022/05/09 03:53:13;;;;;;;;;9.67;9.00;;;;;31.56;21.89;101894.75;5075545;27;45437;-79
2022/05/09 03:55:38;;;;;;;;;9.67;9.67;;;;;31.66;21.86;101904.31;5075770;27;45290;-79
2022/05/09 03:58:04;;;;;;;;;9.33;8.00;;;;;31.69;21.91;101914.22;5075123;28;45398;-79
2022/05/09 04:00:32;;;;;;;;;10.33;9.00;;;;;31.71;21.45;101910.44;5075784;28;45575;-79
2022/05/09 04:02:58;;;;;;;;;9.67;9.33;;;;;31.75;21.55;101919.41;5075494;27;45392;-79
2022/05/09 04:05:29;;;;;;;;;10.00;9.00;;;;;31.71;21.92;101898.59;5075813;27;45400;-79
2022/05/09 04:07:55;;;;;;;;;10.67;9.00;;;;;31.78;21.63;101911.00;5074469;28;45559;-79
2022/05/09 04:10:24;;;;;;;;;11.00;10.00;;;;;31.83;21.91;101914.41;5075290;27;46596;-79
2022/05/09 04:12:49;;;;;;;;;11.33;10.00;;;;;31.84;21.42;101927.16;5076501;27;45396;-79
2022/05/09 04:18:00;;;;;;;;;7.67;7.00;;;;;31.90;21.24;101920.44;5079081;28;45483;-79
2022/05/09 04:20:29;;;;;;;;;7.67;7.67;;;;;31.77;21.73;101899.16;5079011;27;46479;-79
2022/05/09 04:22:59;;;;;;;;;13.00;11.67;;;;;31.62;21.92;101895.34;5078773;27;45267;-79
2022/05/09 04:25:24;;;;;;;;;10.67;9.67;;;;;31.57;21.77;101888.28;5079183;27;45563;-79
2022/05/09 04:27:50;;;;;;;;;10.67;8.33;;;;;31.52;22.00;101899.50;5078544;27;45518;-79
2022/05/09 04:30:17;;;;;;;;;10.33;10.33;;;;;31.55;21.61;101906.69;5078677;27;45733;-79
2022/05/09 04:32:43;;;;;;;;;14.00;10.00;;;;;31.57;22.08;101905.63;5078966;27;45670;-78
2022/05/09 04:35:13;;;;;;;;;9.00;9.00;;;;;31.55;21.99;101912.19;5078701;27;45456;-79
2022/05/09 04:37:42;;;;;;;;;12.33;11.67;;;;;31.46;22.13;101894.31;5078848;27;45619;-79
2022/05/09 04:40:08;;;;;;;;;14.00;12.00;;;;;31.56;22.14;101913.94;5078382;28;45425;-78
2022/05/09 04:42:34;;;;;;;;;12.00;10.00;;;;;31.41;22.34;101911.03;5078353;27;45346;-79
2022/05/09 04:44:59;;;;;;;;;14.00;11.00;;;;;31.40;22.10;101902.88;5078522;27;45318;-79
2022/05/09 04:47:26;;;;;;;;;13.33;12.67;;;;;31.36;21.89;101906.75;5078860;27;45354;-79
2022/05/09 04:49:52;;;;;;;;;11.67;11.67;;;;;31.47;21.77;101923.53;5076969;28;46704;-79
2022/05/09 04:52:17;;;;;;;;;7.33;7.33;;;;;31.50;21.94;101919.75;5078105;27;45440;-77
2022/05/09 04:54:42;;;;;;;;;10.00;10.00;;;;;31.51;22.12;101896.84;5078667;27;45366;-79
2022/05/09 04:57:08;;;;;;;;;10.67;10.00;;;;;31.52;21.58;101885.81;5077939;27;45597;-80
2022/05/09 04:59:33;;;;;;;;;11.00;10.67;;;;;31.64;22.19;101906.25;5078088;27;47314;-80
2022/05/09 05:01:58;;;;;;;;;12.67;12.00;;;;;31.70;22.20;101913.25;5078229;27;45352;-82
2022/05/09 05:04:24;;;;;;;;;11.33;10.00;;;;;31.59;21.73;101901.00;5078269;27;45416;-85
2022/05/09 05:06:49;;;;;;;;;13.33;12.00;;;;;31.67;22.14;101908.81;5078305;27;45386;-83
2022/05/09 05:09:14;;;;;;;;;10.00;9.00;;;;;31.72;21.67;101906.75;5077894;27;46560;-83
2022/05/09 05:11:40;;;;;;;;;12.33;12.33;;;;;31.74;21.88;101910.28;5060684;28;45481;-86
2022/05/09 05:14:05;;;;;;;;;9.67;9.67;;;;;31.86;21.64;101906.00;5057935;28;45400;-85
2022/05/09 05:19:14;;;;;;;;;11.67;11.67;;;;;32.03;21.58;101898.75;5066694;28;45423;-84
2022/05/09 05:21:42;;;;;;;;;11.33;11.00;;;;;32.01;21.28;101884.19;5067649;28;45388;-85
2022/05/09 05:24:07;;;;;;;;;15.33;12.67;;;;;32.17;21.37;101906.25;5061133;27;45280;-84
2022/05/09 05:26:33;;;;;;;;;11.00;11.00;;;;;32.14;21.55;101918.31;5066152;28;45525;-81
2022/05/09 05:28:58;;;;;;;;;10.67;10.67;;;;;32.14;21.70;101934.78;5063074;27;45511;-82
2022/05/09 05:31:23;;;;;;;;;16.33;15.33;;;;;32.08;21.42;101921.34;5062198;28;45474;-84
2022/05/09 05:33:49;;;;;;;;;18.67;13.00;;;;;31.99;21.78;101903.50;5064455;28;45410;-80
2022/05/09 05:36:16;;;;;;;;;14.33;11.33;;;;;32.05;21.41;101919.63;5064957;28;45287;-80
2022/05/09 05:38:43;;;;;;;;;15.33;12.67;;;;;32.15;21.48;101926.47;5067866;28;45510;-82
2022/05/09 05:41:09;;;;;;;;;15.33;14.33;;;;;32.27;21.46;101935.00;5061500;27;46101;-82
2022/05/09 05:43:34;;;;;;;;;12.67;12.00;;;;;32.01;21.84;101912.56;5061129;28;45529;-82
2022/05/09 05:46:00;;;;;;;;;12.67;12.33;;;;;32.02;21.63;101936.28;5060084;27;45682;-68
2022/05/09 05:48:25;;;;;;;;;19.00;15.33;;;;;32.03;22.02;101946.28;5059592;28;46089;-71
2022/05/09 05:50:52;;;;;;;;;14.00;14.00;;;;;31.90;21.58;101931.41;5060557;28;45583;-70
2022/05/09 05:53:19;;;;;;;;;14.67;13.00;;;;;32.04;21.76;101937.09;5055137;28;45550;-70
2022/05/09 05:55:44;;;;;;;;;11.67;11.67;;;;;32.06;21.48;101942.50;5055881;28;45571;-70
2022/05/09 05:58:10;;;;;;;;;13.67;13.33;;;;;32.14;21.55;101932.03;5057948;27;45574;-70
2022/05/09 06:00:36;;;;;;;;;17.00;14.33;;;;;32.07;21.35;101928.69;5059627;28;45577;-70
2022/05/09 06:03:02;;;;;;;;;15.67;14.33;;;;;32.14;21.69;101934.78;5070102;28;45646;-71
2022/05/09 06:05:27;;;;;;;;;17.00;15.33;;;;;32.23;21.66;101927.91;5063814;27;45757;-70
2022/05/09 06:07:55;;;;;;;;;15.00;14.33;;;;;32.40;21.98;101944.34;5063023;28;45561;-70
2022/05/09 06:10:21;;;;;;;;;15.67;13.00;;;;;32.29;21.40;101931.22;5068831;27;46087;-70
2022/05/09 06:12:47;;;;;;;;;14.67;13.67;;;;;32.43;21.37;101935.03;5065400;27;45642;-75
2022/05/09 06:15:28;;;;;;;;;16.67;14.00;;;;;32.56;21.27;101949.91;5059653;28;45669;-69
2022/05/09 06:17:57;;;;;;;;;15.00;12.67;;;;;32.57;21.54;101937.03;5061540;28;46360;-69
2022/05/09 06:20:23;;;;;;;;;14.33;12.00;;;;;32.64;21.44;101943.97;5056122;28;45929;-67
2022/05/09 06:22:49;;;;;;;;;9.00;9.00;;;;;32.70;21.49;101949.16;5070321;27;45659;-68
2022/05/09 06:25:19;;;;;;;;;12.33;12.33;;;;;32.68;21.66;101945.56;5068191;28;45660;-70
2022/05/09 06:27:44;;;;;;;;;13.00;12.00;;;;;32.58;20.96;101939.69;5060261;28;46274;-67
2022/05/09 06:30:12;;;;;;;;;15.00;11.67;;;;;32.34;21.53;101900.75;5071001;28;45548;-72
2022/05/09 06:32:38;;;;;;;;;13.67;12.67;;;;;32.65;21.30;101948.50;5056601;28;45220;-73
2022/05/09 06:35:07;;;;;;;;;14.00;12.33;;;;;32.67;21.38;101941.94;5056115;28;45239;-72
2022/05/09 06:37:33;;;;;;;;;11.33;10.33;;;;;32.78;21.50;101959.72;5053187;28;48055;-72
2022/05/09 06:40:00;;;;;;;;;12.67;11.33;;;;;32.72;21.13;101941.72;5067420;28;45422;-74
2022/05/09 06:42:27;;;;;;;;;12.33;10.33;;;;;32.76;21.59;101943.31;5075605;27;45467;-73
2022/05/09 06:44:53;;;;;;;;;12.67;10.67;;;;;32.69;21.48;101952.88;5073312;28;45606;-72
2022/05/09 06:47:18;;;;;;;;;15.67;14.33;;;;;32.70;21.58;101953.75;5074615;27;46256;-72
2022/05/09 06:49:43;;;;;;;;;12.67;12.67;;;;;32.79;21.18;101958.75;5075904;27;45427;-72
2022/05/09 06:52:09;;;;;;;;;14.33;12.67;;;;;32.78;21.14;101960.59;5074239;27;45571;-72
2022/05/09 06:54:34;;;;;;;;;17.00;12.67;;;;;32.84;20.99;101953.84;5073546;28;45508;-72
2022/05/09 06:56:59;;;;;;;;;11.67;10.67;;;;;32.75;21.09;101951.66;5076559;27;46218;-80
2022/05/09 06:59:25;;;;;;;;;14.33;13.00;;;;;32.74;21.43;101923.28;5075380;28;45300;-80
2022/05/09 07:01:50;;;;;;;;;15.33;13.00;;;;;32.67;21.48;101922.72;5065698;27;45552;-80
2022/05/09 07:04:16;;;;;;;;;12.00;12.00;;;;;32.64;21.21;101922.88;5075209;27;45534;-80
2022/05/09 07:06:43;;;;;;;;;12.00;12.00;;;;;32.90;21.09;101969.13;5074006;28;47236;-80
2022/05/09 07:09:12;;;;;;;;;9.67;9.67;;;;;32.88;20.89;101940.84;5076390;28;46173;-80
2022/05/09 07:11:38;;;;;;;;;16.00;13.00;;;;;32.84;20.90;101920.88;5074999;27;45510;-81
2022/05/09 07:14:04;;;;;;;;;13.67;12.00;;;;;33.02;21.15;101954.69;5072978;28;45530;-79
2022/05/09 07:16:29;;;;;;;;;14.33;11.67;;;;;33.02;20.87;101954.69;5066766;27;47848;-80
2022/05/09 07:18:54;;;;;;;;;12.67;12.67;;;;;32.71;21.25;101909.69;5068472;27;45449;-81
2022/05/09 07:21:20;;;;;;;;;14.33;13.00;;;;;32.67;21.31;101889.72;5070267;28;45513;-81
2022/05/09 07:23:46;;;;;;;;;17.00;13.67;;;;;32.66;20.86;101876.09;5070326;28;45647;-81
2022/05/09 07:26:11;;;;;;;;;13.67;12.33;;;;;32.69;21.22;101869.53;5067726;27;45760;-82
2022/05/09 07:28:37;;;;;;;;;13.33;13.00;;;;;33.12;20.70;101944.03;5070518;28;45451;-81
2022/05/09 07:31:03;;;;;;;;;17.33;16.33;;;;;33.40;20.80;101959.84;5062658;28;45538;-82
2022/05/09 07:33:29;;;;;;;;;11.33;11.33;;;;;33.66;21.05;101965.69;5068284;28;45592;-81
2022/05/09 07:35:55;;;;;;;;;12.33;11.00;;;;;33.24;20.84;101884.75;5063857;28;45633;-82
2022/05/09 07:38:20;;;;;;;;;12.00;12.00;;;;;33.43;20.93;101917.53;5069605;28;45809;-82
2022/05/09 07:40:47;;;;;;;;;12.33;12.00;;;;;33.39;20.86;101925.09;5061124;27;45414;-82
2022/05/09 07:43:19;;;;;;;;;12.67;11.00;;;;;33.62;20.96;101940.22;5066986;27;45530;-82
2022/05/09 07:45:46;;;;;;;;;11.00;10.00;;;;;33.71;20.88;101938.75;5067872;28;47930;-82
2022/05/09 07:48:12;;;;;;;;;16.00;14.67;;;;;33.75;20.66;101964.25;5064526;28;46133;-83
2022/05/09 07:50:38;;;;;;;;;11.00;11.00;;;;;33.89;20.58;101963.44;5066721;28;45839;-81
2022/05/09 07:53:09;;;;;;;;;16.00;15.00;;;;;33.79;20.80;101938.34;5065544;27;45449;-81
2022/05/09 07:55:35;;;;;;;;;16.00;14.33;;;;;33.78;20.80;101959.47;5071410;28;45921;-81
2022/05/09 07:58:00;;;;;;;;;14.33;13.00;;;;;33.91;20.64;101953.22;5065271;27;45443;-83
2022/05/09 08:00:26;;;;;;;;;12.00;12.00;;;;;34.16;20.38;101963.63;5064144;28;45463;-81
2022/05/09 08:02:51;;;;;;;;;15.00;15.00;;;;;34.34;20.58;101961.63;5067313;28;45559;-81
2022/05/09 08:05:17;;;;;;;;;17.00;14.00;;;;;34.36;20.56;101956.88;5072374;27;45441;-81
2022/05/09 08:07:42;;;;;;;;;13.33;12.33;;;;;34.01;20.35;101916.78;5064085;27;45404;-80
2022/05/09 08:10:10;;;;;;;;;17.33;15.67;;;;;34.29;20.76;101966.50;5067217;27;45444;-80
2022/05/09 08:12:36;;;;;;;;;12.00;11.00;;;;;34.17;20.41;101922.19;5070305;28;45471;-80
2022/05/09 08:15:03;;;;;;;;;12.00;12.00;;;;;34.52;20.61;101954.94;5066362;27;45513;-82
2022/05/09 08:17:29;;;;;;;;;14.33;14.00;;;;;34.36;20.16;101921.97;5070626;28;45549;-81
2022/05/09 08:19:55;;;;;;;;;13.33;11.67;;;;;34.49;20.36;101938.59;5069993;27;45435;-81
2022/05/09 08:22:22;;;;;;;;;14.00;12.00;;;;;34.76;20.31;101967.25;5065939;28;45459;-81
2022/05/09 08:24:47;;;;;;;;;15.67;13.00;;;;;34.51;20.04;101920.09;5065338;28;45423;-81
2022/05/09 08:27:13;;;;;;;;;16.67;14.67;;;;;34.16;20.43;101892.00;5072697;27;45371;-81
2022/05/09 08:29:38;;;;;;;;;15.00;15.00;;;;;34.59;20.55;101949.06;5071742;27;45545;-81
2022/05/09 08:32:04;;;;;;;;;12.00;10.00;;;;;34.38;20.77;101927.38;5064416;27;45344;-82
2022/05/09 08:34:29;;;;;;;;;15.33;15.33;;;;;34.59;20.38;101960.06;5072675;28;45465;-82
2022/05/09 08:36:55;;;;;;;;;14.67;13.67;;;;;34.55;20.63;101950.22;5068562;27;46621;-82
2022/05/09 08:39:26;;;;;;;;;14.00;14.00;;;;;34.39;20.36;101904.38;5071469;27;45522;-84
2022/05/09 08:42:00;;;;;;;;;12.33;12.33;;;;;34.70;20.65;101941.84;5072248;28;46403;-83
2022/05/09 08:44:51;;;;;;;;;17.67;16.00;;;;;34.91;20.38;101966.28;5068091;28;46088;-83
2022/05/09 08:47:36;;;;;;;;;20.67;19.33;;;;;34.75;20.51;101963.59;5064290;28;45502;-81
2022/05/09 08:50:15;;;;;;;;;16.00;14.33;;;;;34.86;20.49;101963.81;5050641;27;45418;-81
2022/05/09 08:52:45;;;;;;;;;16.00;13.00;;;;;35.01;20.20;101950.03;5056664;28;45578;-82
2022/05/09 08:55:13;;;;;;;;;14.00;13.00;;;;;35.14;20.53;101945.44;5060077;28;47150;-82
2022/05/09 08:57:45;;;;;;;;;15.33;14.33;;;;;35.18;20.42;101918.56;5068783;28;45452;-81
2022/05/09 09:00:17;;;;;;;;;17.33;17.00;;;;;35.43;20.39;101953.69;5073899;28;45568;-82
2022/05/09 09:03:12;;;;;;;;;17.00;15.33;;;;;35.24;20.25;101922.78;5055435;28;45582;-81
2022/05/09 09:05:41;;;;;;;;;14.00;14.00;;;;;35.37;20.14;101934.78;5075751;27;45576;-81
2022/05/09 09:08:13;;;;;;;;;14.00;13.00;;;;;35.58;20.31;101951.75;5076343;28;45447;-79
2022/05/09 09:11:03;;;;;;;;;17.67;15.67;;;;;35.67;19.96;101936.44;5074654;27;45640;-79
2022/05/09 09:13:49;;;;;;;;;18.67;17.33;;;;;35.86;19.96;101941.59;5060253;27;45441;-81
2022/05/09 09:16:39;;;;;;;;;15.00;14.00;;;;;35.98;20.03;101953.66;5076740;28;46237;-81
2022/05/09 09:19:30;;;;;;;;;18.67;16.33;;;;;35.87;20.21;101955.28;5058614;28;45495;-81
2022/05/09 09:21:58;;;;;;;;;18.67;16.00;;;;;36.04;19.88;101956.00;5058431;28;45376;-81
2022/05/09 09:24:27;;;;;;;;;16.00;14.67;;;;;36.16;19.95;101955.13;5077130;27;45523;-81
2022/05/09 09:27:28;;;;;;;;;19.00;19.00;;;;;35.84;19.96;101921.50;5057285;28;47483;-80
2022/05/09 09:30:10;;;;;;;;;20.00;20.00;;;;;35.72;20.18;101934.22;5076659;28;45285;-80
2022/05/09 09:32:39;;;;;;;;;20.33;17.67;;;;;35.89;19.66;101922.94;5076459;28;45364;-81
2022/05/09 09:35:14;;;;;;;;;19.67;17.00;;;;;36.03;19.81;101923.84;5078303;27;45305;-81
2022/05/09 09:37:59;;;;;;;;;23.00;21.00;;;;;36.03;19.88;101924.75;5085457;27;45516;-81
2022/05/09 09:40:25;;;;;;;;;19.33;18.33;;;;;36.08;19.75;101927.16;4974895;28;45555;-79
2022/05/09 09:42:55;;;;;;;;;16.33;14.67;;;;;36.21;20.29;101927.16;4974744;28;45679;-79
2022/05/09 09:45:29;;;;;;;;;18.33;16.00;;;;;36.45;19.41;101931.97;4976277;28;45638;-80
2022/05/09 09:48:11;;;;;;;;;19.33;18.33;;;;;36.40;19.30;101902.78;4978290;28;46135;-79
2022/05/09 09:50:49;;;;;;;;;20.33;17.67;;;;;36.57;19.98;101936.59;4975476;28;45331;-79
2022/05/09 09:53:32;;;;;;;;;15.33;14.67;;;;;36.54;19.33;101893.47;4974890;28;45561;-80
2022/05/09 09:56:01;;;;;;;;;17.00;17.00;;;;;36.53;19.87;101865.94;4979279;28;45425;-83
2022/05/09 09:58:28;;;;;;;;;18.00;18.00;;;;;36.83;19.60;101898.72;4963757;28;47449;-83
2022/05/09 10:01:21;;;;;;;;;21.67;16.67;;;;;37.18;19.18;101936.69;4974695;28;45864;-83
2022/05/09 10:04:13;;;;;;;;;17.00;16.33;;;;;37.23;19.28;101928.03;4974844;28;45598;-82
2022/05/09 10:07:03;;;;;;;;;23.00;21.00;;;;;37.29;19.14;101932.28;4974507;28;45370;-80
2022/05/09 10:09:37;;;;;;;;;18.33;17.33;;;;;37.11;19.25;101906.84;4980071;28;47401;-83
2022/05/09 10:12:22;;;;;;;;;21.67;18.00;;;;;37.31;19.37;101921.97;4965857;28;45533;-88
2022/05/09 10:14:49;;;;;;;;;19.33;18.33;;;;;37.17;19.39;101882.34;4975857;28;45453;-87
2022/05/09 10:17:25;;;;;;;;;20.33;18.33;;;;;37.47;19.45;101927.19;5013745;28;45564;-88
2022/05/09 10:19:53;;;;;;;;;21.00;19.67;;;;;37.32;18.57;101885.84;5077688;27;45434;-88
2022/05/09 10:25:26;;;;;;;;;17.33;16.00;;;;;37.58;18.64;101911.53;5077909;28;45498;-88
2022/05/09 10:28:14;;;;;;;;;19.00;19.00;;;;;37.50;19.28;101902.94;5057873;28;45440;-88
2022/05/09 10:30:44;;;;;;;;;24.33;21.67;;;;;37.42;19.06;101895.19;5064144;28;48744;-84
2022/05/09 10:33:17;;;;;;;;;19.00;19.00;;;;;37.41;18.83;101871.31;5076047;28;45471;-87
2022/05/09 10:35:55;;;;;;;;;21.67;18.67;;;;;37.41;18.36;101864.88;5075835;28;45478;-88
2022/05/09 10:38:38;;;;;;;;;19.33;18.00;;;;;37.27;18.89;101843.81;5059602;27;45435;-85
2022/05/09 10:41:13;;;;;;;;;18.67;18.67;;;;;37.54;19.16;101903.56;5078829;27;46346;-85
2022/05/09 10:43:46;;;;;;;;;20.00;20.00;;;;;37.35;18.62;101834.94;5075565;28;45253;-85
2022/05/09 10:46:13;;;;;;;;;17.00;16.33;;;;;37.82;18.55;101887.56;5057310;28;45526;-82
2022/05/09 10:48:49;;;;;;;;;20.00;18.67;;;;;37.79;18.80;101890.59;5076202;28;45367;-84
2022/05/09 10:51:16;;;;;;;;;15.33;15.33;;;;;37.91;18.15;101892.41;5075881;27;45417;-80
2022/05/09 10:53:53;;;;;;;;;14.33;14.33;;;;;38.02;18.06;101895.19;5079119;27;45492;-82
2022/05/09 10:56:27;;;;;;;;;19.67;19.67;;;;;37.69;18.26;101884.88;5075534;28;45478;-84
2022/05/09 10:59:03;;;;;;;;;19.67;17.67;;;;;37.87;18.89;101885.34;5056478;28;45596;-90
2022/05/09 11:01:56;;;;;;;;;15.33;14.67;;;;;38.01;18.72;101887.00;5079881;27;45479;-82
2022/05/09 11:04:23;;;;;;;;;19.33;18.33;;;;;38.11;18.35;101876.94;5081053;27;45613;-85
2022/05/09 11:06:57;;;;;;;;;16.33;16.33;;;;;38.13;18.59;101876.81;5075463;28;46111;-84
2022/05/09 11:09:29;;;;;;;;;17.00;15.33;;;;;38.09;18.58;101862.34;5059862;27;46289;-82
2022/05/09 11:12:12;;;;;;;;;20.67;17.33;;;;;38.14;17.62;101854.50;5076489;27;45403;-78
2022/05/09 11:15:05;;;;;;;;;16.00;16.00;;;;;38.15;17.96;101859.06;5075529;27;45631;-86
2022/05/09 11:17:54;;;;;;;;;19.33;16.67;;;;;38.33;18.65;101877.97;5053012;28;45458;-82
2022/05/09 11:20:55;;;;;;;;;14.33;13.67;;;;;38.54;18.66;101878.09;5056589;28;45338;-86
2022/05/09 11:23:45;;;;;;;;;16.00;16.00;;;;;38.61;17.70;101880.25;4992762;28;45539;-83
2022/05/09 11:26:35;;;;;;;;;15.00;14.33;;;;;38.65;17.85;101880.00;4995927;28;45585;-82
2022/05/09 11:29:18;;;;;;;;;16.33;14.67;;;;;38.57;17.99;101848.25;5011603;28;45583;-81
2022/05/09 11:32:16;;;;;;;;;17.00;15.33;;;;;38.76;17.76;101869.81;5007972;28;45576;-83
2022/05/09 11:35:00;;;;;;;;;16.67;14.67;;;;;38.81;18.04;101861.09;5013924;28;45630;-83